sensor_id;sensor_type;location;lat;lon;timestamp;P1;durP1;ratioP1;P2;durP2;ratioP2
71236;SDS011;58984;51.960;5.582;2023-12-07T00:00:15;13.23;;;9.85;;
71236;SDS011;58984;51.960;5.582;2023-12-07T00:02:41;16.15;;;10.65;;
71236;SDS011;58984;51.960;5.582;2023-12-07T00:05:07;15.02;;;10.00;;
71236;SDS011;58984;51.960;5.582;2023-12-07T00:07:33;15.95;;;9.95;;
71236;SDS011;58984;51.960;5.582;2023-12-07T00:09:58;12.68;;;9.85;;
71236;SDS011;58984;51.960;5.582;2023-12-07T00:12:24;20.05;;;10.27;;
71236;SDS011;58984;51.960;5.582;2023-12-07T00:14:50;17.63;;;10.50;;
71236;SDS011;58984;51.960;5.582;2023-12-07T00:17:16;17.10;;;10.98;;
71236;SDS011;58984;51.960;5.582;2023-12-07T00:19:41;16.70;;;9.98;;
71236;SDS011;58984;51.960;5.582;2023-12-07T00:22:07;17.38;;;10.40;;
71236;SDS011;58984;51.960;5.582;2023-12-07T00:24:33;15.18;;;10.20;;
71236;SDS011;58984;51.960;5.582;2023-12-07T00:26:58;13.80;;;10.25;;
71236;SDS011;58984;51.960;5.582;2023-12-07T00:29:24;13.27;;;9.57;;
71236;SDS011;58984;51.960;5.582;2023-12-07T00:31:50;14.65;;;10.45;;
71236;SDS011;58984;51.960;5.582;2023-12-07T00:34:16;15.85;;;10.20;;
71236;SDS011;58984;51.960;5.582;2023-12-07T00:36:42;15.73;;;10.35;;
71236;SDS011;58984;51.960;5.582;2023-12-07T00:39:08;18.77;;;10.82;;
71236;SDS011;58984;51.960;5.582;2023-12-07T00:41:34;14.88;;;10.35;;
71236;SDS011;58984;51.960;5.582;2023-12-07T00:43:59;17.90;;;10.52;;
71236;SDS011;58984;51.960;5.582;2023-12-07T00:46:25;16.30;;;10.73;;
71236;SDS011;58984;51.960;5.582;2023-12-07T00:48:51;14.15;;;10.30;;
71236;SDS011;58984;51.960;5.582;2023-12-07T00:51:16;15.52;;;10.65;;
71236;SDS011;58984;51.960;5.582;2023-12-07T00:53:42;13.57;;;10.48;;
71236;SDS011;58984;51.960;5.582;2023-12-07T00:56:07;16.48;;;10.45;;
71236;SDS011;58984;51.960;5.582;2023-12-07T00:58:33;14.45;;;9.98;;
71236;SDS011;58984;51.960;5.582;2023-12-07T01:00:59;12.48;;;10.13;;
71236;SDS011;58984;51.960;5.582;2023-12-07T01:03:25;20.13;;;11.07;;
71236;SDS011;58984;51.960;5.582;2023-12-07T01:05:51;18.08;;;10.52;;
71236;SDS011;58984;51.960;5.582;2023-12-07T01:08:19;14.68;;;10.73;;
71236;SDS011;58984;51.960;5.582;2023-12-07T01:10:45;17.23;;;10.80;;
71236;SDS011;58984;51.960;5.582;2023-12-07T01:13:11;18.23;;;10.73;;
71236;SDS011;58984;51.960;5.582;2023-12-07T01:15:36;19.65;;;10.82;;
71236;SDS011;58984;51.960;5.582;2023-12-07T01:18:05;15.70;;;10.90;;
71236;SDS011;58984;51.960;5.582;2023-12-07T01:20:30;15.40;;;10.38;;
71236;SDS011;58984;51.960;5.582;2023-12-07T01:22:56;13.48;;;9.98;;
71236;SDS011;58984;51.960;5.582;2023-12-07T01:25:22;16.27;;;11.48;;
71236;SDS011;58984;51.960;5.582;2023-12-07T01:27:47;13.18;;;11.00;;
71236;SDS011;58984;51.960;5.582;2023-12-07T01:30:16;16.83;;;11.32;;
71236;SDS011;58984;51.960;5.582;2023-12-07T01:32:42;15.65;;;10.98;;
71236;SDS011;58984;51.960;5.582;2023-12-07T01:35:07;16.90;;;10.20;;
71236;SDS011;58984;51.960;5.582;2023-12-07T01:37:35;15.98;;;10.95;;
71236;SDS011;58984;51.960;5.582;2023-12-07T01:40:02;18.00;;;11.38;;
71236;SDS011;58984;51.960;5.582;2023-12-07T01:42:30;15.98;;;11.18;;
71236;SDS011;58984;51.960;5.582;2023-12-07T01:44:56;18.83;;;11.38;;
71236;SDS011;58984;51.960;5.582;2023-12-07T01:47:30;15.10;;;10.98;;
71236;SDS011;58984;51.960;5.582;2023-12-07T01:49:56;13.55;;;10.68;;
71236;SDS011;58984;51.960;5.582;2023-12-07T01:52:22;12.15;;;10.68;;
71236;SDS011;58984;51.960;5.582;2023-12-07T01:54:52;15.80;;;11.55;;
71236;SDS011;58984;51.960;5.582;2023-12-07T01:57:29;14.70;;;11.45;;
71236;SDS011;58984;51.960;5.582;2023-12-07T01:59:58;15.18;;;11.57;;
71236;SDS011;58984;51.960;5.582;2023-12-07T02:02:26;15.70;;;11.73;;
71236;SDS011;58984;51.960;5.582;2023-12-07T02:05:02;16.65;;;12.07;;
71236;SDS011;58984;51.960;5.582;2023-12-07T02:07:32;17.33;;;12.20;;
71236;SDS011;58984;51.960;5.582;2023-12-07T02:09:59;16.95;;;12.52;;
71236;SDS011;58984;51.960;5.582;2023-12-07T02:12:25;19.95;;;12.73;;
71236;SDS011;58984;51.960;5.582;2023-12-07T02:14:54;16.17;;;12.18;;
71236;SDS011;58984;51.960;5.582;2023-12-07T02:17:27;17.80;;;12.20;;
71236;SDS011;58984;51.960;5.582;2023-12-07T02:20:09;17.58;;;12.10;;
71236;SDS011;58984;51.960;5.582;2023-12-07T02:22:48;15.85;;;11.50;;
71236;SDS011;58984;51.960;5.582;2023-12-07T02:25:18;17.25;;;12.00;;
71236;SDS011;58984;51.960;5.582;2023-12-07T02:27:48;17.80;;;13.02;;
71236;SDS011;58984;51.960;5.582;2023-12-07T02:30:14;16.98;;;12.90;;
71236;SDS011;58984;51.960;5.582;2023-12-07T02:32:45;15.38;;;11.88;;
71236;SDS011;58984;51.960;5.582;2023-12-07T02:35:11;16.67;;;12.73;;
71236;SDS011;58984;51.960;5.582;2023-12-07T02:37:42;21.35;;;12.90;;
71236;SDS011;58984;51.960;5.582;2023-12-07T02:40:17;22.67;;;14.02;;
71236;SDS011;58984;51.960;5.582;2023-12-07T02:42:48;17.92;;;14.20;;
71236;SDS011;58984;51.960;5.582;2023-12-07T02:45:14;22.85;;;13.80;;
71236;SDS011;58984;51.960;5.582;2023-12-07T02:47:40;19.02;;;13.45;;
71236;SDS011;58984;51.960;5.582;2023-12-07T02:50:11;19.48;;;13.85;;
71236;SDS011;58984;51.960;5.582;2023-12-07T02:52:37;16.85;;;13.32;;
71236;SDS011;58984;51.960;5.582;2023-12-07T02:55:03;21.63;;;13.50;;
71236;SDS011;58984;51.960;5.582;2023-12-07T02:57:29;22.75;;;14.25;;
71236;SDS011;58984;51.960;5.582;2023-12-07T02:59:58;18.75;;;13.40;;
71236;SDS011;58984;51.960;5.582;2023-12-07T03:02:24;19.75;;;14.35;;
71236;SDS011;58984;51.960;5.582;2023-12-07T03:04:49;17.15;;;13.70;;
71236;SDS011;58984;51.960;5.582;2023-12-07T03:07:15;20.52;;;14.48;;
71236;SDS011;58984;51.960;5.582;2023-12-07T03:09:44;26.45;;;13.88;;
71236;SDS011;58984;51.960;5.582;2023-12-07T03:12:10;20.17;;;14.88;;
71236;SDS011;58984;51.960;5.582;2023-12-07T03:14:38;23.30;;;13.85;;
71236;SDS011;58984;51.960;5.582;2023-12-07T03:17:16;23.50;;;14.73;;
71236;SDS011;58984;51.960;5.582;2023-12-07T03:19:42;20.58;;;14.07;;
71236;SDS011;58984;51.960;5.582;2023-12-07T03:22:08;22.45;;;14.05;;
71236;SDS011;58984;51.960;5.582;2023-12-07T03:24:34;20.30;;;14.98;;
71236;SDS011;58984;51.960;5.582;2023-12-07T03:27:01;20.25;;;15.63;;
71236;SDS011;58984;51.960;5.582;2023-12-07T03:29:27;23.63;;;14.90;;
71236;SDS011;58984;51.960;5.582;2023-12-07T03:31:53;24.10;;;14.98;;
71236;SDS011;58984;51.960;5.582;2023-12-07T03:34:22;21.05;;;13.95;;
71236;SDS011;58984;51.960;5.582;2023-12-07T03:36:48;17.85;;;14.07;;
71236;SDS011;58984;51.960;5.582;2023-12-07T03:39:14;19.10;;;14.32;;
71236;SDS011;58984;51.960;5.582;2023-12-07T03:41:41;22.17;;;14.77;;
71236;SDS011;58984;51.960;5.582;2023-12-07T03:44:07;23.55;;;15.45;;
71236;SDS011;58984;51.960;5.582;2023-12-07T03:46:33;17.50;;;14.10;;
71236;SDS011;58984;51.960;5.582;2023-12-07T03:48:59;17.95;;;14.75;;
71236;SDS011;58984;51.960;5.582;2023-12-07T03:51:30;19.30;;;15.88;;
71236;SDS011;58984;51.960;5.582;2023-12-07T03:54:00;22.60;;;15.95;;
71236;SDS011;58984;51.960;5.582;2023-12-07T03:56:27;26.98;;;15.02;;
71236;SDS011;58984;51.960;5.582;2023-12-07T03:58:54;23.05;;;15.57;;
71236;SDS011;58984;51.960;5.582;2023-12-07T04:01:24;20.73;;;15.68;;
71236;SDS011;58984;51.960;5.582;2023-12-07T04:03:58;21.95;;;15.52;;
71236;SDS011;58984;51.960;5.582;2023-12-07T04:06:26;22.65;;;15.75;;
71236;SDS011;58984;51.960;5.582;2023-12-07T04:08:52;25.77;;;16.23;;
71236;SDS011;58984;51.960;5.582;2023-12-07T04:11:19;28.75;;;17.05;;
71236;SDS011;58984;51.960;5.582;2023-12-07T04:13:47;26.10;;;17.50;;
71236;SDS011;58984;51.960;5.582;2023-12-07T04:16:14;33.97;;;17.52;;
71236;SDS011;58984;51.960;5.582;2023-12-07T04:18:39;30.55;;;18.10;;
71236;SDS011;58984;51.960;5.582;2023-12-07T04:21:05;27.98;;;17.48;;
71236;SDS011;58984;51.960;5.582;2023-12-07T04:23:31;28.73;;;18.05;;
71236;SDS011;58984;51.960;5.582;2023-12-07T04:25:59;28.40;;;18.50;;
71236;SDS011;58984;51.960;5.582;2023-12-07T04:28:25;23.90;;;16.73;;
71236;SDS011;58984;51.960;5.582;2023-12-07T04:31:00;27.55;;;18.70;;
71236;SDS011;58984;51.960;5.582;2023-12-07T04:33:26;25.70;;;17.67;;
71236;SDS011;58984;51.960;5.582;2023-12-07T04:35:54;28.77;;;17.85;;
71236;SDS011;58984;51.960;5.582;2023-12-07T04:38:20;26.60;;;17.90;;
71236;SDS011;58984;51.960;5.582;2023-12-07T04:40:46;29.30;;;18.80;;
71236;SDS011;58984;51.960;5.582;2023-12-07T04:43:15;26.60;;;17.77;;
71236;SDS011;58984;51.960;5.582;2023-12-07T04:45:41;30.52;;;18.63;;
71236;SDS011;58984;51.960;5.582;2023-12-07T04:48:07;27.02;;;17.95;;
71236;SDS011;58984;51.960;5.582;2023-12-07T04:50:38;26.40;;;18.13;;
71236;SDS011;58984;51.960;5.582;2023-12-07T04:53:04;27.30;;;19.35;;
71236;SDS011;58984;51.960;5.582;2023-12-07T04:55:30;34.13;;;20.55;;
71236;SDS011;58984;51.960;5.582;2023-12-07T04:58:04;33.00;;;19.92;;
71236;SDS011;58984;51.960;5.582;2023-12-07T05:00:37;31.25;;;19.83;;
71236;SDS011;58984;51.960;5.582;2023-12-07T05:03:05;29.30;;;20.02;;
71236;SDS011;58984;51.960;5.582;2023-12-07T05:05:37;25.83;;;18.67;;
71236;SDS011;58984;51.960;5.582;2023-12-07T05:08:05;32.25;;;18.58;;
71236;SDS011;58984;51.960;5.582;2023-12-07T05:10:36;28.42;;;19.05;;
71236;SDS011;58984;51.960;5.582;2023-12-07T05:13:01;26.63;;;17.55;;
71236;SDS011;58984;51.960;5.582;2023-12-07T05:15:27;28.08;;;19.17;;
71236;SDS011;58984;51.960;5.582;2023-12-07T05:17:56;27.17;;;16.35;;
71236;SDS011;58984;51.960;5.582;2023-12-07T05:20:22;26.38;;;18.52;;
71236;SDS011;58984;51.960;5.582;2023-12-07T05:22:50;27.98;;;18.25;;
71236;SDS011;58984;51.960;5.582;2023-12-07T05:25:16;25.10;;;17.27;;
71236;SDS011;58984;51.960;5.582;2023-12-07T05:27:42;22.25;;;16.85;;
71236;SDS011;58984;51.960;5.582;2023-12-07T05:30:11;23.58;;;17.27;;
71236;SDS011;58984;51.960;5.582;2023-12-07T05:32:38;24.25;;;15.85;;
71236;SDS011;58984;51.960;5.582;2023-12-07T05:35:03;20.15;;;15.45;;
71236;SDS011;58984;51.960;5.582;2023-12-07T05:37:30;19.90;;;15.43;;
71236;SDS011;58984;51.960;5.582;2023-12-07T05:39:57;19.23;;;15.07;;
71236;SDS011;58984;51.960;5.582;2023-12-07T05:42:22;20.83;;;14.90;;
71236;SDS011;58984;51.960;5.582;2023-12-07T05:44:53;20.02;;;15.10;;
71236;SDS011;58984;51.960;5.582;2023-12-07T05:47:20;22.92;;;16.20;;
71236;SDS011;58984;51.960;5.582;2023-12-07T05:49:45;21.83;;;15.75;;
71236;SDS011;58984;51.960;5.582;2023-12-07T05:52:14;23.10;;;16.60;;
71236;SDS011;58984;51.960;5.582;2023-12-07T05:54:40;19.85;;;15.45;;
71236;SDS011;58984;51.960;5.582;2023-12-07T05:57:11;19.08;;;13.98;;
71236;SDS011;58984;51.960;5.582;2023-12-07T05:59:40;23.33;;;14.57;;
71236;SDS011;58984;51.960;5.582;2023-12-07T06:02:07;24.05;;;15.70;;
71236;SDS011;58984;51.960;5.582;2023-12-07T06:04:33;21.17;;;16.20;;
71236;SDS011;58984;51.960;5.582;2023-12-07T06:06:59;20.55;;;14.25;;
71236;SDS011;58984;51.960;5.582;2023-12-07T06:09:25;22.33;;;15.75;;
71236;SDS011;58984;51.960;5.582;2023-12-07T06:11:50;23.73;;;15.15;;
71236;SDS011;58984;51.960;5.582;2023-12-07T06:14:19;25.17;;;15.57;;
71236;SDS011;58984;51.960;5.582;2023-12-07T06:16:45;21.33;;;14.43;;
71236;SDS011;58984;51.960;5.582;2023-12-07T06:19:14;17.63;;;13.98;;
71236;SDS011;58984;51.960;5.582;2023-12-07T06:21:39;24.08;;;13.95;;
71236;SDS011;58984;51.960;5.582;2023-12-07T06:24:05;21.55;;;14.68;;
71236;SDS011;58984;51.960;5.582;2023-12-07T06:26:34;18.63;;;13.82;;
71236;SDS011;58984;51.960;5.582;2023-12-07T06:29:00;23.98;;;15.05;;
71236;SDS011;58984;51.960;5.582;2023-12-07T06:31:28;22.65;;;14.70;;
71236;SDS011;58984;51.960;5.582;2023-12-07T06:33:56;25.52;;;14.63;;
71236;SDS011;58984;51.960;5.582;2023-12-07T06:36:25;21.92;;;15.23;;
71236;SDS011;58984;51.960;5.582;2023-12-07T06:38:52;21.65;;;15.27;;
71236;SDS011;58984;51.960;5.582;2023-12-07T06:41:22;20.55;;;14.93;;
71236;SDS011;58984;51.960;5.582;2023-12-07T06:43:48;20.13;;;13.93;;
71236;SDS011;58984;51.960;5.582;2023-12-07T06:46:14;22.08;;;14.20;;
71236;SDS011;58984;51.960;5.582;2023-12-07T06:48:41;17.73;;;13.95;;
71236;SDS011;58984;51.960;5.582;2023-12-07T06:51:09;19.13;;;13.52;;
71236;SDS011;58984;51.960;5.582;2023-12-07T06:53:35;17.17;;;13.50;;
71236;SDS011;58984;51.960;5.582;2023-12-07T06:56:05;19.08;;;13.68;;
71236;SDS011;58984;51.960;5.582;2023-12-07T06:58:31;18.85;;;13.35;;
71236;SDS011;58984;51.960;5.582;2023-12-07T07:01:00;21.38;;;14.05;;
71236;SDS011;58984;51.960;5.582;2023-12-07T07:03:28;20.00;;;13.98;;
71236;SDS011;58984;51.960;5.582;2023-12-07T07:06:19;18.27;;;13.80;;
71236;SDS011;58984;51.960;5.582;2023-12-07T07:08:57;18.35;;;13.18;;
71236;SDS011;58984;51.960;5.582;2023-12-07T07:11:26;20.90;;;13.90;;
71236;SDS011;58984;51.960;5.582;2023-12-07T07:13:56;16.15;;;12.85;;
71236;SDS011;58984;51.960;5.582;2023-12-07T07:16:37;21.27;;;14.32;;
71236;SDS011;58984;51.960;5.582;2023-12-07T07:19:10;21.95;;;14.02;;
71236;SDS011;58984;51.960;5.582;2023-12-07T07:22:14;18.95;;;13.15;;
71236;SDS011;58984;51.960;5.582;2023-12-07T07:25:06;19.27;;;14.32;;
71236;SDS011;58984;51.960;5.582;2023-12-07T07:27:41;20.83;;;13.98;;
71236;SDS011;58984;51.960;5.582;2023-12-07T07:30:23;25.85;;;14.68;;
71236;SDS011;58984;51.960;5.582;2023-12-07T07:32:49;21.63;;;14.07;;
71236;SDS011;58984;51.960;5.582;2023-12-07T07:35:17;22.08;;;13.85;;
71236;SDS011;58984;51.960;5.582;2023-12-07T07:37:43;21.48;;;13.23;;
71236;SDS011;58984;51.960;5.582;2023-12-07T07:40:09;18.33;;;13.55;;
71236;SDS011;58984;51.960;5.582;2023-12-07T07:42:38;19.90;;;14.95;;
71236;SDS011;58984;51.960;5.582;2023-12-07T07:45:07;20.23;;;14.23;;
71236;SDS011;58984;51.960;5.582;2023-12-07T07:47:36;32.67;;;14.82;;
71236;SDS011;58984;51.960;5.582;2023-12-07T07:50:02;26.08;;;15.75;;
71236;SDS011;58984;51.960;5.582;2023-12-07T07:52:34;24.45;;;15.40;;
71236;SDS011;58984;51.960;5.582;2023-12-07T07:55:01;18.85;;;14.05;;
71236;SDS011;58984;51.960;5.582;2023-12-07T07:57:28;20.88;;;14.60;;
71236;SDS011;58984;51.960;5.582;2023-12-07T07:59:54;21.83;;;14.35;;
71236;SDS011;58984;51.960;5.582;2023-12-07T08:02:20;24.38;;;14.95;;
71236;SDS011;58984;51.960;5.582;2023-12-07T08:04:49;33.22;;;16.38;;
71236;SDS011;58984;51.960;5.582;2023-12-07T08:07:16;30.23;;;16.42;;
71236;SDS011;58984;51.960;5.582;2023-12-07T08:09:42;24.10;;;15.55;;
71236;SDS011;58984;51.960;5.582;2023-12-07T08:12:08;29.42;;;16.05;;
71236;SDS011;58984;51.960;5.582;2023-12-07T08:14:37;26.08;;;15.38;;
71236;SDS011;58984;51.960;5.582;2023-12-07T08:17:03;26.73;;;15.05;;
71236;SDS011;58984;51.960;5.582;2023-12-07T08:19:29;23.05;;;14.95;;
71236;SDS011;58984;51.960;5.582;2023-12-07T08:21:55;22.40;;;14.93;;
71236;SDS011;58984;51.960;5.582;2023-12-07T08:24:29;26.35;;;15.13;;
71236;SDS011;58984;51.960;5.582;2023-12-07T08:27:06;25.73;;;15.52;;
71236;SDS011;58984;51.960;5.582;2023-12-07T08:29:34;22.67;;;14.73;;
71236;SDS011;58984;51.960;5.582;2023-12-07T08:32:01;22.25;;;13.70;;
71236;SDS011;58984;51.960;5.582;2023-12-07T08:34:30;24.02;;;14.52;;
71236;SDS011;58984;51.960;5.582;2023-12-07T08:36:56;23.80;;;13.82;;
71236;SDS011;58984;51.960;5.582;2023-12-07T08:39:22;23.17;;;14.23;;
71236;SDS011;58984;51.960;5.582;2023-12-07T08:41:48;19.02;;;13.75;;
71236;SDS011;58984;51.960;5.582;2023-12-07T08:44:14;22.20;;;14.07;;
71236;SDS011;58984;51.960;5.582;2023-12-07T08:46:39;23.30;;;14.20;;
71236;SDS011;58984;51.960;5.582;2023-12-07T08:49:06;20.90;;;13.90;;
71236;SDS011;58984;51.960;5.582;2023-12-07T08:51:32;19.52;;;13.02;;
71236;SDS011;58984;51.960;5.582;2023-12-07T08:53:58;19.98;;;12.70;;
71236;SDS011;58984;51.960;5.582;2023-12-07T08:56:23;18.15;;;12.05;;
71236;SDS011;58984;51.960;5.582;2023-12-07T08:58:50;17.55;;;11.73;;
71236;SDS011;58984;51.960;5.582;2023-12-07T09:01:19;14.85;;;10.75;;
71236;SDS011;58984;51.960;5.582;2023-12-07T09:03:51;16.55;;;11.23;;
71236;SDS011;58984;51.960;5.582;2023-12-07T09:06:20;14.88;;;10.55;;
71236;SDS011;58984;51.960;5.582;2023-12-07T09:08:46;15.45;;;11.43;;
71236;SDS011;58984;51.960;5.582;2023-12-07T09:11:12;15.30;;;9.90;;
71236;SDS011;58984;51.960;5.582;2023-12-07T09:13:37;13.43;;;9.50;;
71236;SDS011;58984;51.960;5.582;2023-12-07T09:16:04;14.73;;;9.43;;
71236;SDS011;58984;51.960;5.582;2023-12-07T09:18:29;15.32;;;10.02;;
71236;SDS011;58984;51.960;5.582;2023-12-07T09:20:55;13.68;;;9.63;;
71236;SDS011;58984;51.960;5.582;2023-12-07T09:23:21;14.88;;;10.00;;
71236;SDS011;58984;51.960;5.582;2023-12-07T09:25:47;13.88;;;9.48;;
71236;SDS011;58984;51.960;5.582;2023-12-07T09:28:16;14.00;;;9.30;;
71236;SDS011;58984;51.960;5.582;2023-12-07T09:30:41;13.82;;;9.52;;
71236;SDS011;58984;51.960;5.582;2023-12-07T09:33:09;11.93;;;8.73;;
71236;SDS011;58984;51.960;5.582;2023-12-07T09:35:35;10.93;;;8.20;;
71236;SDS011;58984;51.960;5.582;2023-12-07T09:38:01;12.90;;;8.18;;
71236;SDS011;58984;51.960;5.582;2023-12-07T09:40:27;12.52;;;7.82;;
71236;SDS011;58984;51.960;5.582;2023-12-07T09:42:53;16.15;;;8.40;;
71236;SDS011;58984;51.960;5.582;2023-12-07T09:45:20;13.85;;;9.30;;
71236;SDS011;58984;51.960;5.582;2023-12-07T09:47:54;11.90;;;8.35;;
71236;SDS011;58984;51.960;5.582;2023-12-07T09:50:21;15.55;;;8.75;;
71236;SDS011;58984;51.960;5.582;2023-12-07T09:52:49;15.25;;;8.95;;
71236;SDS011;58984;51.960;5.582;2023-12-07T09:55:22;13.35;;;8.20;;
71236;SDS011;58984;51.960;5.582;2023-12-07T09:57:51;12.02;;;8.52;;
71236;SDS011;58984;51.960;5.582;2023-12-07T10:00:25;15.65;;;9.02;;
71236;SDS011;58984;51.960;5.582;2023-12-07T10:02:50;15.65;;;9.18;;
71236;SDS011;58984;51.960;5.582;2023-12-07T10:05:16;16.10;;;9.05;;
71236;SDS011;58984;51.960;5.582;2023-12-07T10:07:46;15.27;;;9.40;;
71236;SDS011;58984;51.960;5.582;2023-12-07T10:10:14;13.20;;;8.60;;
71236;SDS011;58984;51.960;5.582;2023-12-07T10:12:48;13.98;;;8.73;;
71236;SDS011;58984;51.960;5.582;2023-12-07T10:15:20;12.77;;;8.43;;
71236;SDS011;58984;51.960;5.582;2023-12-07T10:17:51;16.40;;;8.55;;
71236;SDS011;58984;51.960;5.582;2023-12-07T10:20:22;12.17;;;7.07;;
71236;SDS011;58984;51.960;5.582;2023-12-07T10:23:04;14.35;;;9.02;;
71236;SDS011;58984;51.960;5.582;2023-12-07T10:25:37;12.90;;;8.43;;
71236;SDS011;58984;51.960;5.582;2023-12-07T10:28:07;11.98;;;8.23;;
71236;SDS011;58984;51.960;5.582;2023-12-07T10:30:36;12.82;;;8.50;;
71236;SDS011;58984;51.960;5.582;2023-12-07T10:33:04;13.55;;;8.63;;
71236;SDS011;58984;51.960;5.582;2023-12-07T10:35:40;14.15;;;9.35;;
71236;SDS011;58984;51.960;5.582;2023-12-07T10:38:10;14.32;;;8.70;;
71236;SDS011;58984;51.960;5.582;2023-12-07T10:40:39;14.70;;;8.63;;
71236;SDS011;58984;51.960;5.582;2023-12-07T10:43:07;15.45;;;9.52;;
71236;SDS011;58984;51.960;5.582;2023-12-07T10:45:33;14.60;;;8.95;;
71236;SDS011;58984;51.960;5.582;2023-12-07T10:48:04;14.85;;;9.20;;
71236;SDS011;58984;51.960;5.582;2023-12-07T10:50:34;19.55;;;10.25;;
71236;SDS011;58984;51.960;5.582;2023-12-07T10:53:10;16.90;;;10.73;;
71236;SDS011;58984;51.960;5.582;2023-12-07T10:55:46;18.20;;;10.52;;
71236;SDS011;58984;51.960;5.582;2023-12-07T10:58:17;17.35;;;10.52;;
71236;SDS011;58984;51.960;5.582;2023-12-07T11:00:52;20.08;;;10.90;;
71236;SDS011;58984;51.960;5.582;2023-12-07T11:03:26;24.67;;;12.75;;
71236;SDS011;58984;51.960;5.582;2023-12-07T11:05:56;19.38;;;11.65;;
71236;SDS011;58984;51.960;5.582;2023-12-07T11:08:25;25.58;;;12.20;;
71236;SDS011;58984;51.960;5.582;2023-12-07T11:14:07;23.33;;;12.38;;
71236;SDS011;58984;51.960;5.582;2023-12-07T11:16:37;22.92;;;11.98;;
71236;SDS011;58984;51.960;5.582;2023-12-07T11:19:05;26.20;;;13.55;;
71236;SDS011;58984;51.960;5.582;2023-12-07T11:21:48;25.48;;;13.07;;
71236;SDS011;58984;51.960;5.582;2023-12-07T11:24:15;23.95;;;14.20;;
71236;SDS011;58984;51.960;5.582;2023-12-07T11:26:42;21.15;;;13.13;;
71236;SDS011;58984;51.960;5.582;2023-12-07T11:29:09;27.90;;;14.52;;
71236;SDS011;58984;51.960;5.582;2023-12-07T11:31:36;22.88;;;13.95;;
71236;SDS011;58984;51.960;5.582;2023-12-07T11:34:06;27.48;;;14.02;;
71236;SDS011;58984;51.960;5.582;2023-12-07T11:36:32;26.63;;;14.32;;
71236;SDS011;58984;51.960;5.582;2023-12-07T11:41:30;28.23;;;15.18;;
71236;SDS011;58984;51.960;5.582;2023-12-07T11:44:08;28.17;;;15.77;;
71236;SDS011;58984;51.960;5.582;2023-12-07T11:46:35;25.30;;;14.55;;
71236;SDS011;58984;51.960;5.582;2023-12-07T11:49:01;24.73;;;14.73;;
71236;SDS011;58984;51.960;5.582;2023-12-07T11:51:27;29.98;;;14.82;;
71236;SDS011;58984;51.960;5.582;2023-12-07T11:53:54;31.38;;;15.93;;
71236;SDS011;58984;51.960;5.582;2023-12-07T11:56:20;26.25;;;15.27;;
71236;SDS011;58984;51.960;5.582;2023-12-07T11:58:46;25.48;;;15.45;;
71236;SDS011;58984;51.960;5.582;2023-12-07T12:01:16;26.65;;;15.18;;
71236;SDS011;58984;51.960;5.582;2023-12-07T12:03:42;28.50;;;14.30;;
71236;SDS011;58984;51.960;5.582;2023-12-07T12:06:08;28.52;;;15.52;;
71236;SDS011;58984;51.960;5.582;2023-12-07T12:08:35;29.77;;;15.93;;
71236;SDS011;58984;51.960;5.582;2023-12-07T12:11:01;31.55;;;14.52;;
71236;SDS011;58984;51.960;5.582;2023-12-07T12:13:28;27.10;;;15.23;;
71236;SDS011;58984;51.960;5.582;2023-12-07T12:15:55;30.92;;;14.40;;
71236;SDS011;58984;51.960;5.582;2023-12-07T12:18:22;25.40;;;13.77;;
71236;SDS011;58984;51.960;5.582;2023-12-07T12:20:50;24.67;;;14.05;;
71236;SDS011;58984;51.960;5.582;2023-12-07T12:23:16;26.73;;;15.40;;
71236;SDS011;58984;51.960;5.582;2023-12-07T12:25:42;24.83;;;14.35;;
71236;SDS011;58984;51.960;5.582;2023-12-07T12:28:09;23.48;;;14.60;;
71236;SDS011;58984;51.960;5.582;2023-12-07T12:30:35;28.48;;;16.65;;
71236;SDS011;58984;51.960;5.582;2023-12-07T12:33:01;28.05;;;15.20;;
71236;SDS011;58984;51.960;5.582;2023-12-07T12:35:27;28.08;;;16.02;;
71236;SDS011;58984;51.960;5.582;2023-12-07T12:37:53;21.60;;;13.88;;
71236;SDS011;58984;51.960;5.582;2023-12-07T12:40:22;26.83;;;15.40;;
71236;SDS011;58984;51.960;5.582;2023-12-07T12:42:49;21.92;;;14.45;;
71236;SDS011;58984;51.960;5.582;2023-12-07T12:45:16;26.77;;;15.40;;
71236;SDS011;58984;51.960;5.582;2023-12-07T12:47:43;26.90;;;15.00;;
71236;SDS011;58984;51.960;5.582;2023-12-07T12:50:10;26.05;;;14.50;;
71236;SDS011;58984;51.960;5.582;2023-12-07T12:52:37;26.27;;;16.25;;
71236;SDS011;58984;51.960;5.582;2023-12-07T12:55:08;27.45;;;16.63;;
71236;SDS011;58984;51.960;5.582;2023-12-07T12:57:35;31.00;;;15.50;;
71236;SDS011;58984;51.960;5.582;2023-12-07T13:00:01;24.52;;;15.68;;
71236;SDS011;58984;51.960;5.582;2023-12-07T13:02:27;31.52;;;16.35;;
71236;SDS011;58984;51.960;5.582;2023-12-07T13:04:53;28.27;;;16.95;;
71236;SDS011;58984;51.960;5.582;2023-12-07T13:07:25;31.15;;;18.00;;
71236;SDS011;58984;51.960;5.582;2023-12-07T13:09:51;30.67;;;17.45;;
71236;SDS011;58984;51.960;5.582;2023-12-07T13:12:17;28.25;;;16.27;;
71236;SDS011;58984;51.960;5.582;2023-12-07T13:14:43;30.02;;;16.60;;
71236;SDS011;58984;51.960;5.582;2023-12-07T13:17:08;27.75;;;16.10;;
71236;SDS011;58984;51.960;5.582;2023-12-07T13:19:34;26.02;;;16.20;;
71236;SDS011;58984;51.960;5.582;2023-12-07T13:22:00;30.75;;;16.70;;
71236;SDS011;58984;51.960;5.582;2023-12-07T13:24:28;27.20;;;16.75;;
71236;SDS011;58984;51.960;5.582;2023-12-07T13:26:54;33.92;;;17.65;;
71236;SDS011;58984;51.960;5.582;2023-12-07T13:29:19;28.60;;;17.92;;
71236;SDS011;58984;51.960;5.582;2023-12-07T13:31:46;32.10;;;18.45;;
71236;SDS011;58984;51.960;5.582;2023-12-07T13:34:14;35.45;;;19.83;;
71236;SDS011;58984;51.960;5.582;2023-12-07T13:36:39;34.08;;;18.00;;
71236;SDS011;58984;51.960;5.582;2023-12-07T13:39:05;35.70;;;18.30;;
71236;SDS011;58984;51.960;5.582;2023-12-07T13:41:31;34.22;;;18.65;;
71236;SDS011;58984;51.960;5.582;2023-12-07T13:43:58;33.25;;;18.30;;
71236;SDS011;58984;51.960;5.582;2023-12-07T13:46:26;36.65;;;20.63;;
71236;SDS011;58984;51.960;5.582;2023-12-07T13:48:51;30.65;;;20.02;;
71236;SDS011;58984;51.960;5.582;2023-12-07T13:51:17;40.45;;;20.38;;
71236;SDS011;58984;51.960;5.582;2023-12-07T13:53:43;41.85;;;21.33;;
71236;SDS011;58984;51.960;5.582;2023-12-07T13:56:09;31.20;;;19.85;;
71236;SDS011;58984;51.960;5.582;2023-12-07T13:58:37;35.22;;;20.15;;
71236;SDS011;58984;51.960;5.582;2023-12-07T14:01:04;36.75;;;21.58;;
71236;SDS011;58984;51.960;5.582;2023-12-07T14:03:30;39.78;;;19.70;;
71236;SDS011;58984;51.960;5.582;2023-12-07T14:05:58;31.23;;;19.15;;
71236;SDS011;58984;51.960;5.582;2023-12-07T14:08:24;36.92;;;19.58;;
71236;SDS011;58984;51.960;5.582;2023-12-07T14:10:51;40.92;;;20.65;;
71236;SDS011;58984;51.960;5.582;2023-12-07T14:13:16;31.10;;;19.35;;
71236;SDS011;58984;51.960;5.582;2023-12-07T14:15:42;36.17;;;19.90;;
71236;SDS011;58984;51.960;5.582;2023-12-07T14:18:08;42.70;;;20.35;;
71236;SDS011;58984;51.960;5.582;2023-12-07T14:20:34;32.22;;;19.10;;
71236;SDS011;58984;51.960;5.582;2023-12-07T14:22:59;33.63;;;20.63;;
71236;SDS011;58984;51.960;5.582;2023-12-07T14:25:30;35.10;;;19.38;;
71236;SDS011;58984;51.960;5.582;2023-12-07T14:27:58;36.08;;;20.13;;
71236;SDS011;58984;51.960;5.582;2023-12-07T14:30:23;40.03;;;20.83;;
71236;SDS011;58984;51.960;5.582;2023-12-07T14:32:52;35.58;;;18.40;;